sensor_id;sensor_type;location;lat;lon;timestamp;temperature;humidity
35127;DHT22;21300;52.006;5.798;2023-05-07T00:02:02;17.10;90.60
35127;DHT22;21300;52.006;5.798;2023-05-07T00:04:29;17.10;90.60
35127;DHT22;21300;52.006;5.798;2023-05-07T00:07:01;17.10;91.00
35127;DHT22;21300;52.006;5.798;2023-05-07T00:09:26;17.00;90.60
35127;DHT22;21300;52.006;5.798;2023-05-07T00:11:52;17.00;90.70
35127;DHT22;21300;52.006;5.798;2023-05-07T00:14:18;17.00;90.60
35127;DHT22;21300;52.006;5.798;2023-05-07T00:16:43;17.00;90.60
35127;DHT22;21300;52.006;5.798;2023-05-07T00:19:09;17.00;90.60
35127;DHT22;21300;52.006;5.798;2023-05-07T00:21:35;16.90;90.60
35127;DHT22;21300;52.006;5.798;2023-05-07T00:24:00;16.90;90.70
35127;DHT22;21300;52.006;5.798;2023-05-07T00:26:26;16.90;90.70
35127;DHT22;21300;52.006;5.798;2023-05-07T00:28:52;17.00;90.70
35127;DHT22;21300;52.006;5.798;2023-05-07T00:31:17;16.90;90.70
35127;DHT22;21300;52.006;5.798;2023-05-07T00:33:43;16.90;90.70
35127;DHT22;21300;52.006;5.798;2023-05-07T00:36:08;16.90;90.70
35127;DHT22;21300;52.006;5.798;2023-05-07T00:38:34;16.90;90.80
35127;DHT22;21300;52.006;5.798;2023-05-07T00:40:59;16.90;90.80
35127;DHT22;21300;52.006;5.798;2023-05-07T00:43:25;16.90;90.80
35127;DHT22;21300;52.006;5.798;2023-05-07T00:45:51;16.80;90.80
35127;DHT22;21300;52.006;5.798;2023-05-07T00:48:17;16.80;90.80
35127;DHT22;21300;52.006;5.798;2023-05-07T00:50:43;16.90;90.80
35127;DHT22;21300;52.006;5.798;2023-05-07T00:53:09;16.80;90.80
35127;DHT22;21300;52.006;5.798;2023-05-07T00:55:35;16.80;90.80
35127;DHT22;21300;52.006;5.798;2023-05-07T00:58:01;16.80;90.80
35127;DHT22;21300;52.006;5.798;2023-05-07T01:00:27;16.80;90.80
35127;DHT22;21300;52.006;5.798;2023-05-07T01:02:53;16.80;90.80
35127;DHT22;21300;52.006;5.798;2023-05-07T01:05:20;16.70;90.90
35127;DHT22;21300;52.006;5.798;2023-05-07T01:07:47;16.70;90.80
35127;DHT22;21300;52.006;5.798;2023-05-07T01:10:14;16.70;90.90
35127;DHT22;21300;52.006;5.798;2023-05-07T01:12:40;16.70;90.90
35127;DHT22;21300;52.006;5.798;2023-05-07T01:15:08;16.70;90.90
35127;DHT22;21300;52.006;5.798;2023-05-07T01:17:35;16.70;90.90
35127;DHT22;21300;52.006;5.798;2023-05-07T01:20:01;16.60;90.90
35127;DHT22;21300;52.006;5.798;2023-05-07T01:22:34;16.60;90.90
35127;DHT22;21300;52.006;5.798;2023-05-07T01:25:02;16.60;90.90
35127;DHT22;21300;52.006;5.798;2023-05-07T01:27:28;16.60;91.00
35127;DHT22;21300;52.006;5.798;2023-05-07T01:29:54;16.60;91.00
35127;DHT22;21300;52.006;5.798;2023-05-07T01:32:33;16.60;91.00
35127;DHT22;21300;52.006;5.798;2023-05-07T01:35:01;16.50;91.00
35127;DHT22;21300;52.006;5.798;2023-05-07T01:37:29;16.50;91.00
35127;DHT22;21300;52.006;5.798;2023-05-07T01:39:55;16.50;91.10
35127;DHT22;21300;52.006;5.798;2023-05-07T01:42:40;16.50;91.10
35127;DHT22;21300;52.006;5.798;2023-05-07T01:45:07;16.50;91.10
35127;DHT22;21300;52.006;5.798;2023-05-07T01:47:33;16.50;91.20
35127;DHT22;21300;52.006;5.798;2023-05-07T01:49:59;16.50;91.10
35127;DHT22;21300;52.006;5.798;2023-05-07T01:52:25;16.40;91.10
35127;DHT22;21300;52.006;5.798;2023-05-07T01:54:50;16.50;91.20
35127;DHT22;21300;52.006;5.798;2023-05-07T01:57:16;16.40;91.20
35127;DHT22;21300;52.006;5.798;2023-05-07T01:59:41;16.40;91.10
35127;DHT22;21300;52.006;5.798;2023-05-07T02:02:07;16.40;91.20
35127;DHT22;21300;52.006;5.798;2023-05-07T02:04:33;16.40;91.20
35127;DHT22;21300;52.006;5.798;2023-05-07T02:06:58;16.30;91.20
35127;DHT22;21300;52.006;5.798;2023-05-07T02:09:24;16.30;91.20
35127;DHT22;21300;52.006;5.798;2023-05-07T02:11:49;16.30;91.20
35127;DHT22;21300;52.006;5.798;2023-05-07T02:14:15;16.30;91.20
35127;DHT22;21300;52.006;5.798;2023-05-07T02:16:41;16.30;91.20
35127;DHT22;21300;52.006;5.798;2023-05-07T02:19:07;16.30;91.30
35127;DHT22;21300;52.006;5.798;2023-05-07T02:21:32;16.30;91.30
35127;DHT22;21300;52.006;5.798;2023-05-07T02:23:58;16.30;91.30
35127;DHT22;21300;52.006;5.798;2023-05-07T02:26:23;16.30;91.30
35127;DHT22;21300;52.006;5.798;2023-05-07T02:28:49;16.30;91.30
35127;DHT22;21300;52.006;5.798;2023-05-07T02:31:14;16.20;91.30
35127;DHT22;21300;52.006;5.798;2023-05-07T02:33:40;16.20;91.40
35127;DHT22;21300;52.006;5.798;2023-05-07T02:36:10;16.20;91.40
35127;DHT22;21300;52.006;5.798;2023-05-07T02:38:36;16.20;91.40
35127;DHT22;21300;52.006;5.798;2023-05-07T02:41:01;16.20;91.40
35127;DHT22;21300;52.006;5.798;2023-05-07T02:43:27;16.20;91.40
35127;DHT22;21300;52.006;5.798;2023-05-07T02:46:06;16.20;91.40
35127;DHT22;21300;52.006;5.798;2023-05-07T02:48:32;16.20;91.40
35127;DHT22;21300;52.006;5.798;2023-05-07T02:50:58;16.20;91.50
35127;DHT22;21300;52.006;5.798;2023-05-07T02:53:25;16.10;91.40
35127;DHT22;21300;52.006;5.798;2023-05-07T02:55:56;16.10;91.50
35127;DHT22;21300;52.006;5.798;2023-05-07T02:58:22;16.10;91.40
35127;DHT22;21300;52.006;5.798;2023-05-07T03:00:48;16.10;91.50
35127;DHT22;21300;52.006;5.798;2023-05-07T03:03:13;16.10;91.50
35127;DHT22;21300;52.006;5.798;2023-05-07T03:05:39;16.10;91.50
35127;DHT22;21300;52.006;5.798;2023-05-07T03:08:05;16.10;91.50
35127;DHT22;21300;52.006;5.798;2023-05-07T03:10:30;16.10;91.50
35127;DHT22;21300;52.006;5.798;2023-05-07T03:12:56;16.10;91.60
35127;DHT22;21300;52.006;5.798;2023-05-07T03:15:22;16.10;91.60
35127;DHT22;21300;52.006;5.798;2023-05-07T03:17:48;16.10;91.60
35127;DHT22;21300;52.006;5.798;2023-05-07T03:20:13;16.00;91.60
35127;DHT22;21300;52.006;5.798;2023-05-07T03:22:40;16.00;91.60
35127;DHT22;21300;52.006;5.798;2023-05-07T03:25:06;16.00;91.60
35127;DHT22;21300;52.006;5.798;2023-05-07T03:27:32;16.00;91.60
35127;DHT22;21300;52.006;5.798;2023-05-07T03:29:58;16.00;91.70
35127;DHT22;21300;52.006;5.798;2023-05-07T03:32:23;16.00;91.70
35127;DHT22;21300;52.006;5.798;2023-05-07T03:34:49;16.00;91.70
35127;DHT22;21300;52.006;5.798;2023-05-07T03:37:15;16.00;91.70
35127;DHT22;21300;52.006;5.798;2023-05-07T03:39:41;15.90;91.70
35127;DHT22;21300;52.006;5.798;2023-05-07T03:42:06;15.90;91.70
35127;DHT22;21300;52.006;5.798;2023-05-07T03:44:32;16.00;91.70
35127;DHT22;21300;52.006;5.798;2023-05-07T03:46:58;15.90;91.70
35127;DHT22;21300;52.006;5.798;2023-05-07T03:49:23;15.90;91.70
35127;DHT22;21300;52.006;5.798;2023-05-07T03:51:49;15.90;91.70
35127;DHT22;21300;52.006;5.798;2023-05-07T03:54:14;15.90;91.80
35127;DHT22;21300;52.006;5.798;2023-05-07T03:56:40;15.90;91.70
35127;DHT22;21300;52.006;5.798;2023-05-07T03:59:05;15.90;91.80
35127;DHT22;21300;52.006;5.798;2023-05-07T04:01:31;15.90;91.80
35127;DHT22;21300;52.006;5.798;2023-05-07T04:03:57;15.90;91.80
35127;DHT22;21300;52.006;5.798;2023-05-07T04:06:22;15.90;91.80
35127;DHT22;21300;52.006;5.798;2023-05-07T04:08:48;15.90;91.80
35127;DHT22;21300;52.006;5.798;2023-05-07T04:11:14;15.80;91.80
35127;DHT22;21300;52.006;5.798;2023-05-07T04:13:39;15.80;91.80
35127;DHT22;21300;52.006;5.798;2023-05-07T04:16:05;15.80;91.80
35127;DHT22;21300;52.006;5.798;2023-05-07T04:18:31;15.80;91.80
35127;DHT22;21300;52.006;5.798;2023-05-07T04:20:57;15.90;91.90
35127;DHT22;21300;52.006;5.798;2023-05-07T04:23:23;15.80;91.90
35127;DHT22;21300;52.006;5.798;2023-05-07T04:25:48;15.80;91.90
35127;DHT22;21300;52.006;5.798;2023-05-07T04:28:14;15.80;91.90
35127;DHT22;21300;52.006;5.798;2023-05-07T04:30:39;15.80;91.90
35127;DHT22;21300;52.006;5.798;2023-05-07T04:33:06;15.80;91.90
35127;DHT22;21300;52.006;5.798;2023-05-07T04:35:32;15.70;91.90
35127;DHT22;21300;52.006;5.798;2023-05-07T04:37:58;15.70;91.90
35127;DHT22;21300;52.006;5.798;2023-05-07T04:40:23;15.70;92.00
35127;DHT22;21300;52.006;5.798;2023-05-07T04:42:49;15.70;92.00
35127;DHT22;21300;52.006;5.798;2023-05-07T04:45:14;15.70;92.00
35127;DHT22;21300;52.006;5.798;2023-05-07T04:47:40;15.70;91.90
35127;DHT22;21300;52.006;5.798;2023-05-07T04:50:09;15.70;92.00
35127;DHT22;21300;52.006;5.798;2023-05-07T04:52:36;15.70;92.10
35127;DHT22;21300;52.006;5.798;2023-05-07T04:55:01;15.70;92.70
35127;DHT22;21300;52.006;5.798;2023-05-07T04:57:27;15.60;92.60
35127;DHT22;21300;52.006;5.798;2023-05-07T04:59:53;15.60;92.90
35127;DHT22;21300;52.006;5.798;2023-05-07T05:02:19;15.60;93.10
35127;DHT22;21300;52.006;5.798;2023-05-07T05:04:45;15.50;93.00
35127;DHT22;21300;52.006;5.798;2023-05-07T05:07:10;15.60;93.20
35127;DHT22;21300;52.006;5.798;2023-05-07T05:09:36;15.60;93.20
35127;DHT22;21300;52.006;5.798;2023-05-07T05:12:02;15.60;93.00
35127;DHT22;21300;52.006;5.798;2023-05-07T05:14:27;15.60;93.00
35127;DHT22;21300;52.006;5.798;2023-05-07T05:16:53;15.60;93.10
35127;DHT22;21300;52.006;5.798;2023-05-07T05:19:18;15.60;93.10
35127;DHT22;21300;52.006;5.798;2023-05-07T05:21:44;15.60;93.00
35127;DHT22;21300;52.006;5.798;2023-05-07T05:24:10;15.60;93.30
35127;DHT22;21300;52.006;5.798;2023-05-07T05:26:35;15.60;93.10
35127;DHT22;21300;52.006;5.798;2023-05-07T05:29:01;15.60;93.00
35127;DHT22;21300;52.006;5.798;2023-05-07T05:31:26;15.60;93.00
35127;DHT22;21300;52.006;5.798;2023-05-07T05:33:52;15.60;93.00
35127;DHT22;21300;52.006;5.798;2023-05-07T05:36:18;15.60;93.00
35127;DHT22;21300;52.006;5.798;2023-05-07T05:38:43;15.60;93.00
35127;DHT22;21300;52.006;5.798;2023-05-07T05:41:09;15.60;93.00
35127;DHT22;21300;52.006;5.798;2023-05-07T05:43:35;15.60;93.00
35127;DHT22;21300;52.006;5.798;2023-05-07T05:46:01;15.60;93.00
35127;DHT22;21300;52.006;5.798;2023-05-07T05:48:29;15.60;93.10
35127;DHT22;21300;52.006;5.798;2023-05-07T05:50:54;15.60;93.10
35127;DHT22;21300;52.006;5.798;2023-05-07T05:53:20;15.60;93.10
35127;DHT22;21300;52.006;5.798;2023-05-07T05:55:46;15.60;93.20
35127;DHT22;21300;52.006;5.798;2023-05-07T05:58:11;15.60;92.90
35127;DHT22;21300;52.006;5.798;2023-05-07T06:00:37;15.60;92.90
35127;DHT22;21300;52.006;5.798;2023-05-07T06:03:03;15.50;93.00
35127;DHT22;21300;52.006;5.798;2023-05-07T06:05:28;15.60;93.00
35127;DHT22;21300;52.006;5.798;2023-05-07T06:07:54;15.60;93.00
35127;DHT22;21300;52.006;5.798;2023-05-07T06:10:19;15.60;93.00
35127;DHT22;21300;52.006;5.798;2023-05-07T06:12:45;15.60;93.00
35127;DHT22;21300;52.006;5.798;2023-05-07T06:15:11;15.60;93.20
35127;DHT22;21300;52.006;5.798;2023-05-07T06:17:36;15.60;93.20
35127;DHT22;21300;52.006;5.798;2023-05-07T06:20:02;15.60;93.10
35127;DHT22;21300;52.006;5.798;2023-05-07T06:22:28;15.50;93.00
35127;DHT22;21300;52.006;5.798;2023-05-07T06:24:53;15.60;92.90
35127;DHT22;21300;52.006;5.798;2023-05-07T06:27:19;15.60;93.10
35127;DHT22;21300;52.006;5.798;2023-05-07T06:29:44;15.60;93.10
35127;DHT22;21300;52.006;5.798;2023-05-07T06:32:11;15.60;93.10
35127;DHT22;21300;52.006;5.798;2023-05-07T06:34:37;15.60;93.00
35127;DHT22;21300;52.006;5.798;2023-05-07T06:37:02;15.60;93.20
35127;DHT22;21300;52.006;5.798;2023-05-07T06:39:28;15.60;92.90
35127;DHT22;21300;52.006;5.798;2023-05-07T06:41:54;15.50;93.00
35127;DHT22;21300;52.006;5.798;2023-05-07T06:44:20;15.50;93.00
35127;DHT22;21300;52.006;5.798;2023-05-07T06:46:45;15.40;93.70
35127;DHT22;21300;52.006;5.798;2023-05-07T06:49:12;15.40;94.50
35127;DHT22;21300;52.006;5.798;2023-05-07T06:51:38;15.40;94.40
35127;DHT22;21300;52.006;5.798;2023-05-07T06:54:04;15.40;94.40
35127;DHT22;21300;52.006;5.798;2023-05-07T06:56:30;15.40;94.70
35127;DHT22;21300;52.006;5.798;2023-05-07T06:58:56;15.40;95.60
35127;DHT22;21300;52.006;5.798;2023-05-07T07:01:21;15.40;95.10
35127;DHT22;21300;52.006;5.798;2023-05-07T07:03:47;15.40;95.10
35127;DHT22;21300;52.006;5.798;2023-05-07T07:06:13;15.40;95.70
35127;DHT22;21300;52.006;5.798;2023-05-07T07:08:38;15.40;95.60
35127;DHT22;21300;52.006;5.798;2023-05-07T07:11:05;15.40;95.70
35127;DHT22;21300;52.006;5.798;2023-05-07T07:13:30;15.40;95.90
35127;DHT22;21300;52.006;5.798;2023-05-07T07:15:56;15.40;95.80
35127;DHT22;21300;52.006;5.798;2023-05-07T07:18:22;15.40;95.80
35127;DHT22;21300;52.006;5.798;2023-05-07T07:20:47;15.40;96.10
35127;DHT22;21300;52.006;5.798;2023-05-07T07:23:13;15.40;95.70
35127;DHT22;21300;52.006;5.798;2023-05-07T07:25:39;15.40;96.40
35127;DHT22;21300;52.006;5.798;2023-05-07T07:28:05;15.50;96.00
35127;DHT22;21300;52.006;5.798;2023-05-07T07:30:31;15.50;96.10
35127;DHT22;21300;52.006;5.798;2023-05-07T07:35:41;15.50;96.10
35127;DHT22;21300;52.006;5.798;2023-05-07T07:38:06;15.60;96.10
35127;DHT22;21300;52.006;5.798;2023-05-07T07:40:34;15.60;96.30
35127;DHT22;21300;52.006;5.798;2023-05-07T07:43:00;15.60;96.20
35127;DHT22;21300;52.006;5.798;2023-05-07T07:45:26;15.60;96.20
35127;DHT22;21300;52.006;5.798;2023-05-07T07:47:52;15.60;96.20
35127;DHT22;21300;52.006;5.798;2023-05-07T07:50:18;15.70;96.20
35127;DHT22;21300;52.006;5.798;2023-05-07T07:52:44;15.70;96.20
35127;DHT22;21300;52.006;5.798;2023-05-07T07:55:09;15.70;96.20
35127;DHT22;21300;52.006;5.798;2023-05-07T07:57:35;15.70;96.30
35127;DHT22;21300;52.006;5.798;2023-05-07T08:00:01;15.70;96.20
35127;DHT22;21300;52.006;5.798;2023-05-07T08:02:27;15.70;96.60
35127;DHT22;21300;52.006;5.798;2023-05-07T08:04:52;15.70;97.30
35127;DHT22;21300;52.006;5.798;2023-05-07T08:07:18;15.70;96.60
35127;DHT22;21300;52.006;5.798;2023-05-07T08:09:46;15.70;96.70
35127;DHT22;21300;52.006;5.798;2023-05-07T08:12:12;15.80;97.00
35127;DHT22;21300;52.006;5.798;2023-05-07T08:14:38;15.80;97.00
35127;DHT22;21300;52.006;5.798;2023-05-07T08:17:03;15.80;97.00
35127;DHT22;21300;52.006;5.798;2023-05-07T08:19:29;15.80;97.00
35127;DHT22;21300;52.006;5.798;2023-05-07T08:21:55;15.80;97.20
35127;DHT22;21300;52.006;5.798;2023-05-07T08:24:21;15.90;97.20
35127;DHT22;21300;52.006;5.798;2023-05-07T08:26:47;15.90;97.30
35127;DHT22;21300;52.006;5.798;2023-05-07T08:29:13;15.90;97.90
35127;DHT22;21300;52.006;5.798;2023-05-07T08:31:39;16.00;97.10
35127;DHT22;21300;52.006;5.798;2023-05-07T08:34:05;16.00;97.10
35127;DHT22;21300;52.006;5.798;2023-05-07T08:36:31;16.10;97.40
35127;DHT22;21300;52.006;5.798;2023-05-07T08:38:57;16.10;97.10
35127;DHT22;21300;52.006;5.798;2023-05-07T08:41:23;16.10;97.70
35127;DHT22;21300;52.006;5.798;2023-05-07T08:43:49;16.10;97.10
35127;DHT22;21300;52.006;5.798;2023-05-07T08:46:18;16.20;97.00
35127;DHT22;21300;52.006;5.798;2023-05-07T08:48:45;16.20;96.80
35127;DHT22;21300;52.006;5.798;2023-05-07T08:51:15;16.20;97.50
35127;DHT22;21300;52.006;5.798;2023-05-07T08:53:41;16.30;96.60
35127;DHT22;21300;52.006;5.798;2023-05-07T08:56:09;16.30;96.50
35127;DHT22;21300;52.006;5.798;2023-05-07T08:58:35;16.30;96.30
35127;DHT22;21300;52.006;5.798;2023-05-07T09:01:05;16.30;96.30
35127;DHT22;21300;52.006;5.798;2023-05-07T09:03:32;16.30;96.10
35127;DHT22;21300;52.006;5.798;2023-05-07T09:05:58;16.40;95.90
35127;DHT22;21300;52.006;5.798;2023-05-07T09:08:49;16.40;95.80
35127;DHT22;21300;52.006;5.798;2023-05-07T09:11:16;16.40;95.60
35127;DHT22;21300;52.006;5.798;2023-05-07T09:13:42;16.50;95.60
35127;DHT22;21300;52.006;5.798;2023-05-07T09:16:11;16.50;95.50
35127;DHT22;21300;52.006;5.798;2023-05-07T09:18:43;16.50;95.60
35127;DHT22;21300;52.006;5.798;2023-05-07T09:21:15;16.60;95.30
35127;DHT22;21300;52.006;5.798;2023-05-07T09:23:41;16.60;95.30
35127;DHT22;21300;52.006;5.798;2023-05-07T09:26:07;16.60;95.20
35127;DHT22;21300;52.006;5.798;2023-05-07T09:28:39;16.60;95.20
35127;DHT22;21300;52.006;5.798;2023-05-07T09:31:05;16.70;95.10
35127;DHT22;21300;52.006;5.798;2023-05-07T09:33:31;16.70;95.00
35127;DHT22;21300;52.006;5.798;2023-05-07T09:35:56;16.70;94.90
35127;DHT22;21300;52.006;5.798;2023-05-07T09:38:22;16.70;94.90
35127;DHT22;21300;52.006;5.798;2023-05-07T09:41:02;16.80;94.90
35127;DHT22;21300;52.006;5.798;2023-05-07T09:43:35;16.80;94.80
35127;DHT22;21300;52.006;5.798;2023-05-07T09:46:07;16.90;94.80
35127;DHT22;21300;52.006;5.798;2023-05-07T09:48:41;16.90;94.70
35127;DHT22;21300;52.006;5.798;2023-05-07T09:53:53;16.90;94.60
35127;DHT22;21300;52.006;5.798;2023-05-07T09:56:19;17.00;94.50
35127;DHT22;21300;52.006;5.798;2023-05-07T09:58:46;17.00;94.40
35127;DHT22;21300;52.006;5.798;2023-05-07T10:01:12;17.10;94.40
35127;DHT22;21300;52.006;5.798;2023-05-07T10:03:40;17.10;94.30
35127;DHT22;21300;52.006;5.798;2023-05-07T10:06:09;17.10;94.20
35127;DHT22;21300;52.006;5.798;2023-05-07T10:08:36;17.20;94.10
35127;DHT22;21300;52.006;5.798;2023-05-07T10:11:03;17.20;94.10
35127;DHT22;21300;52.006;5.798;2023-05-07T10:13:29;17.20;93.90
35127;DHT22;21300;52.006;5.798;2023-05-07T10:15:55;17.30;93.90
35127;DHT22;21300;52.006;5.798;2023-05-07T10:18:21;17.30;93.90
35127;DHT22;21300;52.006;5.798;2023-05-07T10:20:55;17.30;93.80
35127;DHT22;21300;52.006;5.798;2023-05-07T10:23:24;17.40;93.70
35127;DHT22;21300;52.006;5.798;2023-05-07T10:25:51;17.40;93.70
35127;DHT22;21300;52.006;5.798;2023-05-07T10:28:19;17.40;93.60
35127;DHT22;21300;52.006;5.798;2023-05-07T10:31:15;17.40;93.50
35127;DHT22;21300;52.006;5.798;2023-05-07T10:33:45;17.50;93.50
35127;DHT22;21300;52.006;5.798;2023-05-07T10:36:11;17.50;93.40
35127;DHT22;21300;52.006;5.798;2023-05-07T10:38:37;17.50;93.30
35127;DHT22;21300;52.006;5.798;2023-05-07T10:41:03;17.60;93.30
35127;DHT22;21300;52.006;5.798;2023-05-07T10:43:44;17.60;93.20
35127;DHT22;21300;52.006;5.798;2023-05-07T10:46:19;17.70;93.10
35127;DHT22;21300;52.006;5.798;2023-05-07T10:51:27;17.70;93.00
35127;DHT22;21300;52.006;5.798;2023-05-07T10:56:43;17.80;92.90
35127;DHT22;21300;52.006;5.798;2023-05-07T11:01:54;17.90;92.70
35127;DHT22;21300;52.006;5.798;2023-05-07T11:04:20;17.90;92.50
35127;DHT22;21300;52.006;5.798;2023-05-07T11:15:06;18.10;92.30
35127;DHT22;21300;52.006;5.798;2023-05-07T11:17:33;18.20;92.40
35127;DHT22;21300;52.006;5.798;2023-05-07T11:20:01;18.20;92.40
35127;DHT22;21300;52.006;5.798;2023-05-07T11:25:05;18.30;92.20
35127;DHT22;21300;52.006;5.798;2023-05-07T11:27:31;18.30;92.10
35127;DHT22;21300;52.006;5.798;2023-05-07T11:29:57;18.40;92.10
35127;DHT22;21300;52.006;5.798;2023-05-07T11:32:23;18.40;92.00
35127;DHT22;21300;52.006;5.798;2023-05-07T11:34:53;18.50;92.00
35127;DHT22;21300;52.006;5.798;2023-05-07T11:37:20;18.50;92.00
35127;DHT22;21300;52.006;5.798;2023-05-07T11:39:46;18.60;91.90
35127;DHT22;21300;52.006;5.798;2023-05-07T11:42:34;18.60;91.90
35127;DHT22;21300;52.006;5.798;2023-05-07T11:45:00;18.60;91.80
35127;DHT22;21300;52.006;5.798;2023-05-07T11:47:26;18.60;91.80
35127;DHT22;21300;52.006;5.798;2023-05-07T11:49:55;18.70;91.70
35127;DHT22;21300;52.006;5.798;2023-05-07T11:52:22;18.70;91.70
35127;DHT22;21300;52.006;5.798;2023-05-07T11:54:55;18.70;91.60
35127;DHT22;21300;52.006;5.798;2023-05-07T11:57:22;18.70;91.60
35127;DHT22;21300;52.006;5.798;2023-05-07T11:59:55;18.80;91.50
35127;DHT22;21300;52.006;5.798;2023-05-07T12:02:21;18.80;91.50
35127;DHT22;21300;52.006;5.798;2023-05-07T12:04:47;18.90;91.50
35127;DHT22;21300;52.006;5.798;2023-05-07T12:07:14;18.90;91.40
35127;DHT22;21300;52.006;5.798;2023-05-07T12:09:44;18.90;91.30
35127;DHT22;21300;52.006;5.798;2023-05-07T12:12:09;19.00;91.30
35127;DHT22;21300;52.006;5.798;2023-05-07T12:14:43;19.00;91.30
35127;DHT22;21300;52.006;5.798;2023-05-07T12:17:10;19.00;91.20
35127;DHT22;21300;52.006;5.798;2023-05-07T12:19:37;19.00;91.20
35127;DHT22;21300;52.006;5.798;2023-05-07T12:22:03;19.10;91.30
35127;DHT22;21300;52.006;5.798;2023-05-07T12:24:45;19.10;91.20
35127;DHT22;21300;52.006;5.798;2023-05-07T12:27:11;19.20;91.20
35127;DHT22;21300;52.006;5.798;2023-05-07T12:29:36;19.20;91.10
35127;DHT22;21300;52.006;5.798;2023-05-07T12:32:06;19.20;91.10
35127;DHT22;21300;52.006;5.798;2023-05-07T12:34:32;19.20;91.10
35127;DHT22;21300;52.006;5.798;2023-05-07T12:37:01;19.20;91.00
35127;DHT22;21300;52.006;5.798;2023-05-07T12:39:27;19.30;91.00
35127;DHT22;21300;52.006;5.798;2023-05-07T12:41:57;19.30;90.90
35127;DHT22;21300;52.006;5.798;2023-05-07T12:44:30;19.40;91.00
35127;DHT22;21300;52.006;5.798;2023-05-07T12:46:56;19.40;90.90
35127;DHT22;21300;52.006;5.798;2023-05-07T12:49:23;19.40;90.70
35127;DHT22;21300;52.006;5.798;2023-05-07T12:51:49;19.40;90.90
35127;DHT22;21300;52.006;5.798;2023-05-07T12:54:31;19.50;90.90
35127;DHT22;21300;52.006;5.798;2023-05-07T12:57:05;19.50;90.80
35127;DHT22;21300;52.006;5.798;2023-05-07T12:59:36;19.50;90.70
35127;DHT22;21300;52.006;5.798;2023-05-07T13:02:02;19.60;90.70
35127;DHT22;21300;52.006;5.798;2023-05-07T13:04:28;19.60;90.70
35127;DHT22;21300;52.006;5.798;2023-05-07T13:06:54;19.60;90.70
35127;DHT22;21300;52.006;5.798;2023-05-07T13:09:20;19.60;90.70
35127;DHT22;21300;52.006;5.798;2023-05-07T13:11:45;19.60;90.60
35127;DHT22;21300;52.006;5.798;2023-05-07T13:14:11;19.70;90.60
35127;DHT22;21300;52.006;5.798;2023-05-07T13:16:37;19.70;90.60
35127;DHT22;21300;52.006;5.798;2023-05-07T13:19:02;19.70;90.60
35127;DHT22;21300;52.006;5.798;2023-05-07T13:21:28;19.80;90.50
35127;DHT22;21300;52.006;5.798;2023-05-07T13:23:53;19.80;90.60
35127;DHT22;21300;52.006;5.798;2023-05-07T13:26:19;19.80;90.50
35127;DHT22;21300;52.006;5.798;2023-05-07T13:28:45;19.80;90.50
35127;DHT22;21300;52.006;5.798;2023-05-07T13:31:11;19.90;90.40
35127;DHT22;21300;52.006;5.798;2023-05-07T13:33:38;19.90;90.40
35127;DHT22;21300;52.006;5.798;2023-05-07T13:36:03;19.90;90.40
35127;DHT22;21300;52.006;5.798;2023-05-07T13:38:31;19.90;90.20
35127;DHT22;21300;52.006;5.798;2023-05-07T13:40:56;20.00;90.30
35127;DHT22;21300;52.006;5.798;2023-05-07T13:43:22;20.00;90.20
35127;DHT22;21300;52.006;5.798;2023-05-07T13:45:47;20.00;90.10
35127;DHT22;21300;52.006;5.798;2023-05-07T13:48:13;20.00;90.00
35127;DHT22;21300;52.006;5.798;2023-05-07T13:50:38;20.00;90.00
35127;DHT22;21300;52.006;5.798;2023-05-07T13:53:04;20.10;90.20
35127;DHT22;21300;52.006;5.798;2023-05-07T13:55:30;20.10;90.20
35127;DHT22;21300;52.006;5.798;2023-05-07T13:57:57;20.10;90.10
35127;DHT22;21300;52.006;5.798;2023-05-07T14:00:24;20.10;90.00
35127;DHT22;21300;52.006;5.798;2023-05-07T14:02:49;20.10;90.00
35127;DHT22;21300;52.006;5.798;2023-05-07T14:05:15;20.20;90.10
35127;DHT22;21300;52.006;5.798;2023-05-07T14:07:41;20.20;90.00
35127;DHT22;21300;52.006;5.798;2023-05-07T14:10:06;20.20;90.00
35127;DHT22;21300;52.006;5.798;2023-05-07T14:12:32;20.20;90.00
35127;DHT22;21300;52.006;5.798;2023-05-07T14:14:58;20.20;90.00
35127;DHT22;21300;52.006;5.798;2023-05-07T14:17:24;20.30;90.10
35127;DHT22;21300;52.006;5.798;2023-05-07T14:19:53;20.30;89.80
35127;DHT22;21300;52.006;5.798;2023-05-07T14:22:22;20.30;89.90
35127;DHT22;21300;52.006;5.798;2023-05-07T14:24:49;20.30;90.00
35127;DHT22;21300;52.006;5.798;2023-05-07T14:27:15;20.40;90.00
35127;DHT22;21300;52.006;5.798;2023-05-07T14:29:40;20.40;89.40
35127;DHT22;21300;52.006;5.798;2023-05-07T14:32:06;20.40;89.20
35127;DHT22;21300;52.006;5.798;2023-05-07T14:34:32;20.40;89.40
35127;DHT22;21300;52.006;5.798;2023-05-07T14:36:59;20.40;89.30
35127;DHT22;21300;52.006;5.798;2023-05-07T14:39:25;20.40;89.00
35127;DHT22;21300;52.006;5.798;2023-05-07T14:41:51;20.40;89.20
35127;DHT22;21300;52.006;5.798;2023-05-07T14:44:16;20.50;89.40
35127;DHT22;21300;52.006;5.798;2023-05-07T14:46:42;20.50;89.00
35127;DHT22;21300;52.006;5.798;2023-05-07T14:49:08;20.50;89.10
35127;DHT22;21300;52.006;5.798;2023-05-07T14:51:42;20.50;89.60
35127;DHT22;21300;52.006;5.798;2023-05-07T14:54:07;20.50;89.60
35127;DHT22;21300;52.006;5.798;2023-05-07T14:56:34;20.50;89.60
35127;DHT22;21300;52.006;5.798;2023-05-07T14:59:00;20.60;89.40
35127;DHT22;21300;52.006;5.798;2023-05-07T15:01:27;20.50;89.40
35127;DHT22;21300;52.006;5.798;2023-05-07T15:03:52;20.50;89.60
35127;DHT22;21300;52.006;5.798;2023-05-07T15:06:18;20.50;89.50
35127;DHT22;21300;52.006;5.798;2023-05-07T15:08:43;20.50;89.40
35127;DHT22;21300;52.006;5.798;2023-05-07T15:11:09;20.50;88.80
35127;DHT22;21300;52.006;5.798;2023-05-07T15:13:35;20.50;89.00
35127;DHT22;21300;52.006;5.798;2023-05-07T15:16:00;20.60;88.70
35127;DHT22;21300;52.006;5.798;2023-05-07T15:18:26;20.60;88.90
35127;DHT22;21300;52.006;5.798;2023-05-07T15:20:51;20.60;88.80
35127;DHT22;21300;52.006;5.798;2023-05-07T15:23:17;20.60;89.00
35127;DHT22;21300;52.006;5.798;2023-05-07T15:25:43;20.60;89.80
35127;DHT22;21300;52.006;5.798;2023-05-07T15:28:08;20.60;88.80
35127;DHT22;21300;52.006;5.798;2023-05-07T15:30:36;20.60;89.10
35127;DHT22;21300;52.006;5.798;2023-05-07T15:33:02;20.60;89.40
35127;DHT22;21300;52.006;5.798;2023-05-07T15:35:28;20.60;89.40
35127;DHT22;21300;52.006;5.798;2023-05-07T15:37:54;20.50;89.80
35127;DHT22;21300;52.006;5.798;2023-05-07T15:40:19;20.50;89.70
35127;DHT22;21300;52.006;5.798;2023-05-07T15:42:45;20.50;89.30
35127;DHT22;21300;52.006;5.798;2023-05-07T15:45:11;20.50;89.60
35127;DHT22;21300;52.006;5.798;2023-05-07T15:47:37;20.50;89.10
35127;DHT22;21300;52.006;5.798;2023-05-07T15:50:03;20.50;89.10
35127;DHT22;21300;52.006;5.798;2023-05-07T15:52:30;20.50;89.00